createdAt,value
2023-05-03T00:01:34.057Z,5.71
2023-05-03T00:04:00.529Z,5.63
2023-05-03T00:06:27.120Z,5.68
2023-05-03T00:08:53.806Z,5.70
2023-05-03T00:11:21.178Z,5.65
2023-05-03T00:13:47.676Z,5.52
2023-05-03T00:16:14.308Z,5.53
2023-05-03T00:18:40.842Z,5.52
2023-05-03T00:21:07.490Z,5.56
2023-05-03T00:23:34.327Z,5.53
2023-05-03T00:26:00.806Z,5.41
2023-05-03T00:28:27.382Z,5.38
2023-05-03T00:30:54.122Z,5.40
2023-05-03T00:33:21.478Z,5.37
2023-05-03T00:35:47.897Z,5.34
2023-05-03T00:38:15.419Z,5.26
2023-05-03T00:40:41.949Z,5.08
2023-05-03T00:43:11.671Z,5.11
2023-05-03T00:45:38.449Z,4.98
2023-05-03T00:48:05.143Z,4.99
2023-05-03T00:50:31.709Z,4.99
2023-05-03T00:52:58.476Z,5.03
2023-05-03T00:55:26.279Z,4.95
2023-05-03T00:57:52.785Z,4.99
2023-05-03T01:00:20.360Z,4.97
2023-05-03T01:02:47.102Z,4.91
2023-05-03T01:09:17.503Z,4.90
2023-05-03T01:12:08.516Z,4.88
2023-05-03T01:15:01.153Z,4.81
2023-05-03T01:17:34.757Z,4.76
2023-05-03T01:20:08.192Z,4.71
2023-05-03T01:22:49.457Z,4.72
2023-05-03T01:25:16.485Z,4.69
2023-05-03T01:27:43.372Z,4.62
2023-05-03T01:30:12.477Z,4.60
2023-05-03T01:32:57.272Z,4.57
2023-05-03T01:35:33.103Z,4.55
2023-05-03T01:38:00.597Z,4.54
2023-05-03T01:40:29.150Z,4.52
2023-05-03T01:42:57.078Z,4.51
2023-05-03T01:45:23.741Z,4.46
2023-05-03T01:47:50.236Z,4.48
2023-05-03T01:50:16.785Z,4.39
2023-05-03T01:52:44.962Z,4.39
2023-05-03T01:55:11.735Z,4.37
2023-05-03T01:57:38.267Z,4.32
2023-05-03T02:00:05.701Z,4.28
2023-05-03T02:02:32.550Z,4.25
2023-05-03T02:04:59.037Z,4.22
2023-05-03T02:07:25.955Z,4.17
2023-05-03T02:09:52.412Z,4.15
2023-05-03T02:12:18.845Z,4.10
2023-05-03T02:14:45.453Z,4.14
2023-05-03T02:17:11.965Z,4.07
2023-05-03T02:19:38.450Z,4.02
2023-05-03T02:22:04.873Z,4.01
2023-05-03T02:24:31.713Z,4.03
2023-05-03T02:26:58.127Z,4.06
2023-05-03T02:29:24.705Z,3.96
2023-05-03T02:31:51.230Z,3.98
2023-05-03T02:34:17.653Z,3.95
2023-05-03T02:36:44.348Z,3.92
2023-05-03T02:39:11.183Z,3.87
2023-05-03T02:41:37.788Z,3.80
2023-05-03T02:44:04.319Z,3.80
2023-05-03T02:46:31.174Z,3.78
2023-05-03T02:48:57.714Z,3.77
2023-05-03T02:51:24.256Z,3.77
2023-05-03T02:53:50.752Z,3.69
2023-05-03T02:56:17.471Z,3.66
2023-05-03T02:58:43.938Z,3.63
2023-05-03T03:01:11.416Z,3.67
2023-05-03T03:03:38.049Z,3.66
2023-05-03T03:06:04.799Z,3.58
2023-05-03T03:08:31.288Z,3.59
2023-05-03T03:10:57.804Z,3.55
2023-05-03T03:13:24.370Z,3.59
2023-05-03T03:15:50.858Z,3.56
2023-05-03T03:18:19.034Z,3.54
2023-05-03T03:20:46.304Z,3.60
2023-05-03T03:23:12.805Z,3.53
2023-05-03T03:25:39.482Z,3.51
2023-05-03T03:28:05.913Z,3.47
2023-05-03T03:30:32.480Z,3.42
2023-05-03T03:32:59.001Z,3.39
2023-05-03T03:35:26.000Z,3.44
2023-05-03T03:37:53.819Z,3.47
2023-05-03T03:40:20.496Z,3.42
2023-05-03T03:42:46.930Z,3.41
2023-05-03T03:45:13.374Z,3.38
2023-05-03T03:47:39.806Z,3.29
2023-05-03T03:50:06.811Z,3.35
2023-05-03T03:52:33.627Z,3.30
2023-05-03T03:55:00.058Z,3.28
2023-05-03T03:57:30.081Z,3.29
2023-05-03T03:59:57.507Z,3.33
2023-05-03T04:02:24.751Z,3.31
2023-05-03T04:04:51.356Z,3.25
2023-05-03T04:07:17.901Z,3.20
2023-05-03T04:09:44.599Z,3.23
2023-05-03T04:12:11.463Z,3.29
2023-05-03T04:14:37.959Z,3.27
2023-05-03T04:17:04.743Z,3.28
2023-05-03T04:19:32.261Z,3.33
2023-05-03T04:21:58.786Z,3.47
2023-05-03T04:24:25.266Z,3.44
2023-05-03T04:26:51.854Z,3.54
2023-05-03T04:29:19.946Z,3.55
2023-05-03T04:31:46.997Z,3.63
2023-05-03T04:34:15.994Z,3.68
2023-05-03T04:36:42.893Z,3.81
2023-05-03T04:39:11.605Z,3.86
2023-05-03T04:41:38.048Z,3.93
2023-05-03T04:44:05.842Z,3.94
2023-05-03T04:46:32.479Z,4.01
2023-05-03T04:48:59.001Z,4.13
2023-05-03T04:51:25.570Z,4.12
2023-05-03T04:53:51.981Z,4.19
2023-05-03T04:56:20.526Z,4.21
2023-05-03T04:58:47.103Z,4.29
2023-05-03T05:01:14.310Z,4.33
2023-05-03T05:03:40.888Z,4.30
2023-05-03T05:06:09.827Z,4.32
2023-05-03T05:08:36.635Z,4.39
2023-05-03T05:11:06.286Z,4.38
2023-05-03T05:13:32.807Z,4.48
2023-05-03T05:15:59.375Z,4.57
2023-05-03T05:18:26.081Z,4.64
2023-05-03T05:20:52.604Z,4.58
2023-05-03T05:23:19.467Z,4.42
2023-05-03T05:25:46.150Z,4.50
2023-05-03T05:28:12.567Z,4.60
2023-05-03T05:30:39.125Z,4.60
2023-05-03T05:33:05.971Z,4.79
2023-05-03T05:35:33.821Z,4.64
2023-05-03T05:38:00.370Z,4.66
2023-05-03T05:40:26.905Z,4.77
2023-05-03T05:42:53.484Z,4.75
2023-05-03T05:45:19.969Z,4.76
2023-05-03T05:47:46.849Z,4.74
2023-05-03T05:50:18.323Z,5.00
2023-05-03T05:52:45.345Z,4.91
2023-05-03T05:55:14.622Z,4.74
2023-05-03T05:57:41.156Z,4.90
2023-05-03T06:00:14.643Z,5.07
2023-05-03T06:02:42.260Z,5.12
2023-05-03T06:05:09.385Z,5.22
2023-05-03T06:07:36.641Z,5.32
2023-05-03T06:10:04.564Z,5.42
2023-05-03T06:12:31.508Z,5.36
2023-05-03T06:15:02.901Z,5.35
2023-05-03T06:17:29.751Z,5.50
2023-05-03T06:19:57.124Z,5.61
2023-05-03T06:22:23.704Z,5.76
2023-05-03T06:24:50.651Z,5.85
2023-05-03T06:27:17.401Z,5.99
2023-05-03T06:29:44.734Z,6.10
2023-05-03T06:32:11.163Z,6.17
2023-05-03T06:34:37.963Z,5.88
2023-05-03T06:37:04.587Z,6.11
2023-05-03T06:39:31.147Z,6.19
2023-05-03T06:41:57.630Z,6.47
2023-05-03T06:44:24.091Z,6.79
2023-05-03T06:46:51.398Z,6.79
2023-05-03T06:49:18.188Z,6.99
2023-05-03T06:51:44.674Z,7.17
2023-05-03T06:54:11.176Z,7.59
2023-05-03T06:56:37.741Z,7.64
2023-05-03T06:59:04.470Z,7.66
2023-05-03T07:01:32.113Z,8.34
2023-05-03T07:03:58.764Z,8.52
2023-05-03T07:06:25.395Z,8.82
2023-05-03T07:08:52.687Z,9.07
2023-05-03T07:11:23.734Z,9.39
2023-05-03T07:13:51.494Z,9.64
2023-05-03T07:16:19.119Z,9.83
2023-05-03T07:18:46.650Z,10.03
2023-05-03T07:21:13.665Z,10.14
2023-05-03T07:23:40.724Z,10.43
2023-05-03T07:26:08.165Z,10.66
2023-05-03T07:28:34.666Z,10.35
2023-05-03T07:31:03.433Z,10.42
2023-05-03T07:33:30.626Z,10.95
2023-05-03T07:35:57.176Z,11.27
2023-05-03T07:38:23.617Z,11.61
2023-05-03T07:40:50.306Z,11.44
2023-05-03T07:43:21.235Z,11.34
2023-05-03T07:45:47.864Z,11.81
2023-05-03T07:48:14.409Z,12.00
2023-05-03T07:50:44.259Z,11.13
2023-05-03T07:53:12.273Z,11.67
2023-05-03T07:55:38.973Z,12.34
2023-05-03T07:58:05.501Z,12.05
2023-05-03T08:00:32.073Z,11.92
2023-05-03T08:02:58.673Z,12.38
2023-05-03T08:05:25.542Z,12.49
2023-05-03T08:07:52.684Z,12.84
2023-05-03T08:10:19.427Z,12.85
2023-05-03T08:12:46.555Z,12.59
2023-05-03T08:15:13.234Z,12.90
2023-05-03T08:17:45.443Z,13.25
2023-05-03T08:20:13.413Z,13.55
2023-05-03T08:22:41.309Z,14.15
2023-05-03T08:25:08.215Z,13.97
2023-05-03T08:27:34.723Z,13.85
2023-05-03T08:30:01.902Z,13.91
2023-05-03T08:32:29.723Z,14.13
2023-05-03T08:34:56.830Z,13.62
2023-05-03T08:37:23.678Z,14.53
2023-05-03T08:39:50.226Z,14.57
2023-05-03T08:42:17.050Z,15.11
2023-05-03T08:44:48.491Z,13.97
2023-05-03T08:47:16.996Z,14.48
2023-05-03T08:49:44.606Z,14.76
2023-05-03T08:52:14.105Z,15.48
2023-05-03T08:54:41.538Z,15.19
2023-05-03T08:57:13.645Z,15.62
2023-05-03T08:59:47.631Z,15.40
2023-05-03T09:02:15.925Z,14.77
2023-05-03T09:04:42.815Z,15.64
2023-05-03T09:07:13.370Z,15.29
2023-05-03T09:09:39.911Z,15.83
2023-05-03T09:12:06.546Z,15.36
2023-05-03T09:14:43.308Z,13.96
2023-05-03T09:17:21.493Z,15.32
2023-05-03T09:19:53.144Z,15.91
2023-05-03T09:22:20.316Z,16.22
2023-05-03T09:24:54.415Z,15.86
2023-05-03T09:27:21.590Z,16.95
2023-05-03T09:29:48.873Z,16.52
2023-05-03T09:32:16.118Z,15.49
2023-05-03T09:34:43.443Z,16.01
2023-05-03T09:37:10.495Z,16.20
2023-05-03T09:39:37.070Z,16.80
2023-05-03T09:42:14.724Z,16.71
2023-05-03T09:44:55.533Z,16.77
2023-05-03T09:47:24.563Z,17.40
2023-05-03T09:49:51.144Z,17.13
2023-05-03T09:52:17.763Z,16.51
2023-05-03T09:54:44.894Z,15.70
2023-05-03T09:57:14.641Z,14.57
2023-05-03T09:59:42.193Z,15.15
2023-05-03T10:02:08.886Z,16.70
2023-05-03T10:04:57.229Z,16.42
2023-05-03T10:07:28.405Z,16.13
2023-05-03T10:09:58.036Z,16.85
2023-05-03T10:12:26.310Z,17.64
2023-05-03T10:14:54.953Z,17.68
2023-05-03T10:17:46.177Z,17.24
2023-05-03T10:20:23.789Z,19.19
2023-05-03T10:23:06.003Z,18.27
2023-05-03T10:25:34.511Z,18.60
2023-05-03T10:28:08.240Z,18.10
2023-05-03T10:30:39.530Z,16.61
2023-05-03T10:33:14.856Z,16.96
2023-05-03T10:35:54.700Z,16.62
2023-05-03T10:38:23.843Z,16.08
2023-05-03T10:40:51.071Z,15.81
2023-05-03T10:43:29.661Z,16.71
2023-05-03T10:46:03.513Z,16.88
2023-05-03T10:48:31.285Z,16.47
2023-05-03T10:51:18.687Z,16.28
2023-05-03T10:53:45.153Z,16.29
2023-05-03T10:56:15.666Z,15.66
2023-05-03T10:58:44.748Z,15.89
2023-05-03T11:01:13.368Z,15.89
2023-05-03T11:03:51.587Z,15.33
2023-05-03T11:06:28.104Z,15.54
2023-05-03T11:08:54.686Z,15.44
2023-05-03T11:11:22.104Z,15.39
2023-05-03T11:13:50.902Z,14.59
2023-05-03T11:16:17.793Z,14.56
2023-05-03T11:18:45.346Z,14.14
2023-05-03T11:21:12.901Z,13.49
2023-05-03T11:23:39.800Z,13.81
2023-05-03T11:26:06.698Z,14.54
2023-05-03T11:28:33.158Z,15.33
2023-05-03T11:31:02.163Z,15.89
2023-05-03T11:33:31.968Z,16.37
2023-05-03T11:35:58.474Z,16.91
2023-05-03T11:38:25.146Z,17.96
2023-05-03T11:40:51.665Z,18.32
2023-05-03T11:43:18.133Z,17.73
2023-05-03T11:45:46.393Z,17.27
2023-05-03T11:48:13.855Z,17.40
2023-05-03T11:50:58.494Z,16.90
2023-05-03T11:53:26.372Z,16.03
2023-05-03T11:55:54.273Z,15.19
2023-05-03T11:58:26.402Z,14.21
2023-05-03T12:00:57.135Z,13.15
2023-05-03T12:03:30.467Z,13.61
2023-05-03T12:05:58.889Z,13.26
2023-05-03T12:08:31.910Z,13.27
2023-05-03T12:11:02.868Z,13.04
2023-05-03T12:13:39.700Z,13.06
2023-05-03T12:16:13.684Z,12.98
2023-05-03T12:19:02.130Z,13.04
2023-05-03T12:21:58.825Z,12.99
2023-05-03T12:24:35.419Z,12.95
2023-05-03T12:27:03.242Z,12.68
2023-05-03T12:29:34.673Z,12.73
2023-05-03T12:32:03.446Z,12.79
2023-05-03T12:34:34.731Z,12.92
2023-05-03T12:37:04.842Z,12.89
2023-05-03T12:39:32.893Z,13.15
2023-05-03T12:44:31.282Z,12.68
2023-05-03T12:47:02.003Z,12.67
2023-05-03T12:49:28.955Z,12.53
2023-05-03T12:52:11.343Z,12.43
2023-05-03T12:54:48.920Z,12.47
2023-05-03T12:57:22.059Z,12.22
2023-05-03T12:59:53.984Z,12.39
2023-05-03T13:04:59.701Z,12.11
2023-05-03T13:07:30.182Z,12.28
2023-05-03T13:12:28.346Z,12.25
2023-05-03T13:14:55.389Z,12.27
2023-05-03T13:17:23.222Z,12.37
2023-05-03T13:19:51.359Z,12.30
2023-05-03T13:22:18.213Z,12.15
2023-05-03T13:24:45.984Z,11.86
2023-05-03T13:27:12.806Z,12.25
2023-05-03T13:29:39.979Z,12.37
2023-05-03T13:32:08.079Z,12.20
2023-05-03T13:34:35.165Z,12.00
2023-05-03T13:37:02.687Z,11.96
2023-05-03T13:39:29.299Z,11.88
2023-05-03T13:41:55.896Z,11.84
2023-05-03T13:44:25.334Z,11.86
2023-05-03T13:46:56.318Z,11.79
2023-05-03T13:49:22.847Z,11.89
2023-05-03T13:51:49.378Z,11.80
2023-05-03T13:54:15.853Z,11.59
2023-05-03T13:56:43.201Z,11.86
2023-05-03T13:59:12.302Z,11.96
2023-05-03T14:01:39.327Z,11.96
2023-05-03T14:04:06.110Z,12.12
2023-05-03T14:06:33.593Z,12.10
2023-05-03T14:09:01.628Z,12.17
2023-05-03T14:11:29.766Z,12.27
2023-05-03T14:13:57.526Z,12.23
2023-05-03T14:16:40.042Z,11.74
2023-05-03T14:19:10.159Z,11.71
2023-05-03T14:21:37.137Z,11.78
2023-05-03T14:24:03.857Z,11.84
2023-05-03T14:26:30.424Z,11.83
2023-05-03T14:28:59.344Z,11.93
2023-05-03T14:31:26.121Z,11.93
2023-05-03T14:33:53.114Z,11.93
2023-05-03T14:36:19.632Z,12.08
2023-05-03T14:38:46.379Z,12.19
2023-05-03T14:41:13.328Z,12.21
2023-05-03T14:43:39.771Z,12.18
2023-05-03T14:46:06.229Z,12.03
2023-05-03T14:48:32.652Z,12.06
2023-05-03T14:50:59.361Z,12.16
2023-05-03T14:53:25.945Z,12.17
2023-05-03T14:55:53.757Z,11.82
2023-05-03T14:58:20.242Z,12.10
2023-05-03T15:00:46.733Z,12.10
2023-05-03T15:03:13.729Z,12.07
2023-05-03T15:05:58.575Z,12.02
2023-05-03T15:08:25.267Z,11.99
2023-05-03T15:10:52.427Z,12.06
2023-05-03T15:13:19.194Z,12.09
2023-05-03T15:15:46.045Z,12.13
2023-05-03T15:18:14.459Z,11.97
2023-05-03T15:20:41.204Z,11.78
2023-05-03T15:23:07.805Z,11.65
2023-05-03T15:25:34.279Z,11.82
2023-05-03T15:28:04.181Z,11.85
2023-05-03T15:30:32.923Z,11.75
2023-05-03T15:32:59.962Z,11.82
2023-05-03T15:35:27.270Z,11.85
2023-05-03T15:37:54.101Z,11.84
2023-05-03T15:40:23.676Z,11.92
2023-05-03T15:42:51.879Z,11.76
2023-05-03T15:45:19.464Z,11.80
2023-05-03T15:47:46.206Z,11.74
2023-05-03T15:50:12.935Z,11.62
2023-05-03T15:52:39.481Z,11.76
2023-05-03T15:55:06.773Z,11.83
2023-05-03T15:57:33.350Z,11.78
2023-05-03T15:59:59.810Z,11.86
2023-05-03T16:02:26.287Z,11.85
2023-05-03T16:04:52.814Z,11.81
2023-05-03T16:07:19.390Z,11.85
2023-05-03T16:09:46.580Z,11.86
2023-05-03T16:12:13.078Z,11.90
2023-05-03T16:14:39.883Z,11.91
2023-05-03T16:17:06.367Z,11.93
2023-05-03T16:19:32.921Z,11.78
2023-05-03T16:21:59.475Z,11.75
2023-05-03T16:24:26.355Z,11.80
2023-05-03T16:26:53.028Z,11.76
2023-05-03T16:29:19.771Z,11.71
2023-05-03T16:31:46.952Z,11.61
2023-05-03T16:34:14.295Z,11.76
2023-05-03T16:36:43.281Z,11.62
2023-05-03T16:39:13.824Z,11.56
2023-05-03T16:41:41.341Z,11.55
2023-05-03T16:44:09.253Z,11.61
2023-05-03T16:46:37.118Z,11.46
2023-05-03T16:49:05.041Z,11.51
2023-05-03T16:51:32.228Z,11.42
2023-05-03T16:53:59.814Z,11.46
2023-05-03T16:56:27.775Z,11.40
2023-05-03T16:58:54.350Z,11.40
2023-05-03T17:01:22.042Z,11.36
2023-05-03T17:03:48.897Z,11.33
2023-05-03T17:06:16.025Z,11.30
2023-05-03T17:08:42.773Z,11.27
2023-05-03T17:11:12.453Z,11.37
2023-05-03T17:13:39.253Z,11.28
2023-05-03T17:16:10.857Z,11.13
2023-05-03T17:18:38.570Z,11.19
2023-05-03T17:21:05.661Z,11.18
2023-05-03T17:23:36.190Z,11.15
2023-05-03T17:26:04.125Z,11.04
2023-05-03T17:28:31.729Z,11.07
2023-05-03T17:30:59.390Z,11.01
2023-05-03T17:33:26.466Z,10.89
2023-05-03T17:35:54.033Z,10.84
2023-05-03T17:38:20.627Z,10.85
2023-05-03T17:40:47.476Z,10.76
2023-05-03T17:43:17.362Z,10.79
2023-05-03T17:45:45.166Z,10.72
2023-05-03T17:48:14.763Z,10.70
2023-05-03T17:50:46.268Z,10.73
2023-05-03T17:53:12.852Z,10.55
2023-05-03T17:55:39.373Z,10.55
2023-05-03T17:58:06.409Z,10.56
2023-05-03T18:00:33.481Z,10.41
2023-05-03T18:03:00.242Z,10.40
2023-05-03T18:05:27.589Z,10.43
2023-05-03T18:07:54.207Z,10.37
2023-05-03T18:10:21.111Z,10.33
2023-05-03T18:12:47.745Z,10.23
2023-05-03T18:15:15.501Z,10.22
2023-05-03T18:17:42.804Z,10.12
2023-05-03T18:20:10.098Z,10.16
2023-05-03T18:22:37.600Z,10.12
2023-05-03T18:25:07.441Z,10.01
2023-05-03T18:27:37.363Z,10.02
2023-05-03T18:30:06.735Z,9.92
2023-05-03T18:32:34.101Z,9.89
2023-05-03T18:35:01.019Z,9.87
2023-05-03T18:37:27.755Z,9.85
2023-05-03T18:39:54.372Z,9.85
2023-05-03T18:42:21.355Z,9.78
2023-05-03T18:44:48.310Z,9.69
2023-05-03T18:47:16.403Z,9.68
2023-05-03T18:49:48.328Z,9.66
2023-05-03T18:52:15.211Z,9.64
2023-05-03T18:54:41.713Z,9.61
2023-05-03T18:57:08.146Z,9.54
2023-05-03T18:59:36.672Z,9.47
2023-05-03T19:02:07.966Z,9.43
2023-05-03T19:04:34.729Z,9.47
2023-05-03T19:07:01.555Z,9.40
2023-05-03T19:09:28.206Z,9.31
2023-05-03T19:11:55.481Z,9.27
2023-05-03T19:14:22.111Z,9.24
2023-05-03T19:16:48.663Z,9.19
2023-05-03T19:19:15.540Z,9.00
2023-05-03T19:21:43.701Z,9.06
2023-05-03T19:24:15.045Z,9.05
2023-05-03T19:26:41.705Z,9.09
2023-05-03T19:29:09.112Z,9.11
2023-05-03T19:31:35.800Z,8.95
2023-05-03T19:34:02.892Z,8.95
2023-05-03T19:36:29.801Z,8.90
2023-05-03T19:38:56.372Z,8.81
2023-05-03T19:41:22.903Z,8.71
2023-05-03T19:43:53.959Z,8.79
2023-05-03T19:46:20.700Z,8.68
2023-05-03T19:48:47.505Z,8.69
2023-05-03T19:51:17.365Z,8.61
2023-05-03T19:53:44.261Z,8.58
2023-05-03T19:56:13.258Z,8.56
2023-05-03T19:58:40.062Z,8.56
2023-05-03T20:01:07.113Z,8.54
2023-05-03T20:03:33.684Z,8.46
2023-05-03T20:06:00.206Z,8.47
2023-05-03T20:08:27.091Z,8.41
2023-05-03T20:10:55.548Z,8.39
2023-05-03T20:13:22.582Z,8.32
2023-05-03T20:15:49.465Z,8.23
2023-05-03T20:18:15.931Z,8.22
2023-05-03T20:20:42.407Z,8.21
2023-05-03T20:23:08.894Z,8.18
2023-05-03T20:25:35.392Z,8.08
2023-05-03T20:28:01.966Z,8.08
2023-05-03T20:30:30.925Z,8.09
2023-05-03T20:32:58.655Z,7.93
2023-05-03T20:35:25.548Z,7.90
2023-05-03T20:37:52.092Z,7.98
2023-05-03T20:40:18.540Z,7.85
2023-05-03T20:42:45.243Z,7.94
2023-05-03T20:45:12.361Z,7.83
2023-05-03T20:47:38.818Z,7.73
2023-05-03T20:50:06.216Z,7.72
2023-05-03T20:52:33.031Z,7.73
2023-05-03T20:54:59.461Z,7.67
2023-05-03T21:02:43.244Z,7.65
2023-05-03T21:05:11.222Z,7.51
2023-05-03T21:07:38.441Z,7.47
2023-05-03T21:10:07.038Z,7.42
2023-05-03T21:12:33.929Z,7.49
2023-05-03T21:15:00.440Z,7.51
2023-05-03T21:17:27.210Z,7.35
2023-05-03T21:19:53.697Z,7.34
2023-05-03T21:22:20.274Z,7.31
2023-05-03T21:24:46.783Z,7.30
2023-05-03T21:27:13.277Z,7.20
2023-05-03T21:29:39.714Z,7.25
2023-05-03T21:32:06.629Z,7.28
2023-05-03T21:34:33.238Z,7.24
2023-05-03T21:37:01.034Z,7.21
2023-05-03T21:39:27.517Z,7.12
2023-05-03T21:41:54.411Z,7.13
2023-05-03T21:44:21.045Z,7.14
2023-05-03T21:46:47.677Z,7.04
2023-05-03T21:49:15.193Z,7.02
2023-05-03T21:51:41.670Z,7.02
2023-05-03T21:54:08.165Z,6.90
2023-05-03T21:56:34.766Z,6.99
2023-05-03T21:59:01.468Z,6.98
2023-05-03T22:01:29.773Z,6.94
2023-05-03T22:03:56.514Z,6.94
2023-05-03T22:06:23.167Z,6.89
2023-05-03T22:08:49.659Z,6.93
2023-05-03T22:11:16.132Z,6.87
2023-05-03T22:13:58.875Z,6.79
2023-05-03T22:16:29.447Z,6.86
2023-05-03T22:18:56.108Z,6.74
2023-05-03T22:21:22.536Z,6.69
2023-05-03T22:23:49.044Z,6.64
2023-05-03T22:26:15.482Z,6.60
2023-05-03T22:28:41.910Z,6.64
2023-05-03T22:31:08.478Z,6.68
2023-05-03T22:33:35.531Z,6.63
2023-05-03T22:36:02.101Z,6.71
2023-05-03T22:38:28.522Z,6.69
2023-05-03T22:40:54.945Z,6.60
2023-05-03T22:43:21.347Z,6.64
2023-05-03T22:45:47.805Z,6.65
2023-05-03T22:48:14.308Z,6.59
2023-05-03T22:50:40.831Z,6.60
2023-05-03T22:53:07.371Z,6.56
2023-05-03T22:55:33.799Z,6.63
2023-05-03T22:58:00.274Z,6.65
2023-05-03T23:00:26.912Z,6.66
2023-05-03T23:02:53.768Z,6.66
2023-05-03T23:05:20.345Z,6.67
2023-05-03T23:07:46.792Z,6.65
2023-05-03T23:10:13.740Z,6.66
2023-05-03T23:12:40.358Z,6.63
2023-05-03T23:15:07.266Z,6.59
2023-05-03T23:17:33.893Z,6.60
2023-05-03T23:20:00.574Z,6.59
2023-05-03T23:22:27.494Z,6.53
2023-05-03T23:24:53.929Z,6.46
2023-05-03T23:27:20.375Z,6.38
2023-05-03T23:29:48.207Z,6.35
2023-05-03T23:32:15.294Z,6.33
2023-05-03T23:34:42.533Z,6.31
2023-05-03T23:37:09.010Z,6.20
2023-05-03T23:39:35.694Z,6.14
2023-05-03T23:42:02.107Z,6.05
2023-05-03T23:44:39.295Z,5.98
2023-05-03T23:47:14.999Z,5.96
2023-05-03T23:49:41.501Z,5.93
2023-05-03T23:52:08.421Z,5.89
2023-05-03T23:54:34.974Z,5.88
2023-05-03T23:57:03.993Z,5.87
2023-05-03T23:59:30.670Z,5.80
